Time;durP1;ratioP1;P1;durP2;ratioP2;P2;SDS_P1;SDS_P2;PMS_P1;PMS_P2;Temp;Humidity;BMP_temperature;BMP_pressure;BME280_temperature;BME280_humidity;BME280_pressure;Samples;Min_cycle;Max_cycle;Signal;HPM_P1;HPM_P2
2022/05/21 00:00:21;;;;;;;15.40;7.40;;;;;;;10.87;100.00;96926.59;5044853;28;20488;-71
2022/05/21 00:02:49;;;;;;;17.73;7.97;;;;;;;10.85;100.00;96934.88;5044543;28;20569;-70
2022/05/21 00:05:16;;;;;;;14.38;6.45;;;;;;;10.79;100.00;96953.75;5047306;28;20036;-72
2022/05/21 00:07:43;;;;;;;16.83;7.70;;;;;;;10.62;100.00;96929.59;5053037;28;20043;-71
2022/05/21 00:10:13;;;;;;;14.98;7.43;;;;;;;10.43;100.00;96938.84;5045636;28;20092;-71
2022/05/21 00:12:40;;;;;;;17.60;7.83;;;;;;;10.28;100.00;96939.34;5049826;28;20041;-74
2022/05/21 00:15:07;;;;;;;16.67;8.70;;;;;;;10.18;100.00;96955.91;5048249;28;20128;-71
2022/05/21 00:17:32;;;;;;;25.20;8.93;;;;;;;10.06;100.00;96941.75;5051091;28;20036;-71
2022/05/21 00:19:58;;;;;;;15.50;8.23;;;;;;;9.95;100.00;96961.28;5049586;28;20032;-71
2022/05/21 00:22:23;;;;;;;15.93;7.85;;;;;;;9.80;100.00;96960.91;5049087;28;20044;-71
2022/05/21 00:24:49;;;;;;;14.63;7.40;;;;;;;9.71;100.00;96961.25;5048707;28;20044;-74
2022/05/21 00:27:14;;;;;;;19.23;9.20;;;;;;;9.55;100.00;96969.94;5049606;28;20051;-71
2022/05/21 00:29:40;;;;;;;22.52;9.43;;;;;;;9.51;100.00;96957.28;5049912;28;20103;-72
2022/05/21 00:32:06;;;;;;;15.27;6.85;;;;;;;9.44;100.00;96960.88;5047368;28;20052;-71
2022/05/21 00:34:34;;;;;;;19.52;9.55;;;;;;;9.39;100.00;96968.75;5049901;28;20096;-74
2022/05/21 00:37:00;;;;;;;22.27;8.95;;;;;;;9.34;100.00;96975.81;5055615;28;20091;-74
2022/05/21 00:39:26;;;;;;;19.50;8.43;;;;;;;9.30;100.00;96979.97;5047547;28;20496;-72
2022/05/21 00:41:51;;;;;;;19.40;9.90;;;;;;;9.24;100.00;96975.53;5049621;28;20379;-74
2022/05/21 00:44:17;;;;;;;18.52;8.00;;;;;;;9.22;100.00;96986.47;5047252;28;20124;-71
2022/05/21 00:46:44;;;;;;;20.95;9.63;;;;;;;9.17;100.00;96980.97;5050210;28;20560;-73
2022/05/21 00:49:23;;;;;;;21.52;9.85;;;;;;;9.11;100.00;96987.25;5047535;28;20123;-71
2022/05/21 00:51:54;;;;;;;16.83;9.45;;;;;;;9.09;100.00;96978.63;5048545;28;20399;-73
2022/05/21 00:54:24;;;;;;;17.73;9.88;;;;;;;9.07;100.00;96986.06;5046668;28;20041;-74
2022/05/21 00:57:01;;;;;;;23.95;9.68;;;;;;;9.01;100.00;96993.09;5051864;28;20032;-71
2022/05/21 01:02:14;;;;;;;17.25;9.65;;;;;;;8.96;100.00;96998.31;5046268;28;20344;-75
2022/05/21 01:04:42;;;;;;;20.45;8.93;;;;;;;8.94;100.00;96987.03;5048578;28;20043;-71
2022/05/21 01:07:08;;;;;;;17.75;9.93;;;;;;;8.89;100.00;97008.25;5049195;28;20076;-72
2022/05/21 01:09:34;;;;;;;18.60;9.48;;;;;;;8.86;100.00;97004.16;5048924;28;20044;-73
2022/05/21 01:12:02;;;;;;;16.67;8.88;;;;;;;8.84;100.00;96997.44;5046996;28;20056;-76
2022/05/21 01:14:28;;;;;;;20.90;10.27;;;;;;;8.80;100.00;96997.06;5048432;28;20314;-71
2022/05/21 01:16:54;;;;;;;19.38;9.65;;;;;;;8.77;100.00;97004.69;5050694;28;20059;-73
2022/05/21 01:19:19;;;;;;;20.63;9.52;;;;;;;8.76;100.00;97000.41;5046470;28;20037;-74
2022/05/21 01:21:47;;;;;;;18.52;9.55;;;;;;;8.73;100.00;97001.66;5048530;28;20551;-75
2022/05/21 01:24:14;;;;;;;20.40;10.18;;;;;;;8.72;100.00;97009.91;5047601;28;20041;-72
2022/05/21 01:26:40;;;;;;;22.38;10.57;;;;;;;8.71;100.00;97013.59;5048407;28;20048;-71
2022/05/21 01:29:12;;;;;;;17.92;9.70;;;;;;;8.67;100.00;97012.41;5049294;28;20594;-74
2022/05/21 01:31:39;;;;;;;18.75;10.45;;;;;;;8.63;100.00;97012.03;5047366;28;20341;-72
2022/05/21 01:34:04;;;;;;;19.52;9.73;;;;;;;8.60;100.00;97012.50;5034493;28;20098;-72
2022/05/21 01:36:30;;;;;;;24.00;10.88;;;;;;;8.62;100.00;97023.75;5048348;28;21139;-72
2022/05/21 01:38:57;;;;;;;19.17;10.18;;;;;;;8.59;100.00;97027.69;5046605;28;20048;-72
2022/05/21 01:41:22;;;;;;;19.33;10.32;;;;;;;8.60;100.00;97023.97;5048911;28;20489;-74
2022/05/21 01:46:32;;;;;;;18.75;10.00;;;;;;;8.58;100.00;97014.56;5046223;28;20499;-73
2022/05/21 01:48:57;;;;;;;21.20;11.40;;;;;;;8.54;100.00;97018.69;5043595;28;20108;-71
2022/05/21 01:51:23;;;;;;;22.25;11.15;;;;;;;8.51;100.00;97019.16;5062455;28;20127;-73
2022/05/21 01:53:49;;;;;;;20.08;11.00;;;;;;;8.48;100.00;97025.75;5048444;28;20514;-75
2022/05/21 01:56:15;;;;;;;22.38;10.55;;;;;;;8.43;100.00;97028.25;5032530;28;20111;-72
2022/05/21 01:58:42;;;;;;;21.30;10.90;;;;;;;8.44;100.00;97026.41;5047471;28;20065;-74
2022/05/21 02:01:08;;;;;;;20.55;10.75;;;;;;;8.42;100.00;97031.97;5044474;28;20045;-72
2022/05/21 02:03:34;;;;;;;19.17;10.85;;;;;;;8.46;100.00;97032.34;5047495;28;20052;-71
2022/05/21 02:06:00;;;;;;;18.55;9.93;;;;;;;8.48;100.00;97030.25;5047997;28;20113;-72
2022/05/21 02:08:26;;;;;;;22.27;11.40;;;;;;;8.48;100.00;97025.75;5045749;28;20033;-72
2022/05/21 02:10:52;;;;;;;24.55;11.00;;;;;;;8.47;100.00;97024.09;5048166;28;20388;-72
2022/05/21 02:13:21;;;;;;;20.58;9.63;;;;;;;8.48;100.00;97031.09;5046927;28;20074;-73
2022/05/21 02:15:47;;;;;;;23.33;10.40;;;;;;;8.47;100.00;97026.78;5047070;28;20040;-72
2022/05/21 02:18:12;;;;;;;23.80;11.43;;;;;;;8.47;100.00;97023.28;5046328;28;20129;-73
2022/05/21 02:20:38;;;;;;;19.70;9.70;;;;;;;8.41;100.00;97033.00;5044992;28;20129;-72
2022/05/21 02:23:05;;;;;;;23.23;10.20;;;;;;;8.40;100.00;97028.69;5048319;28;20129;-72
2022/05/21 02:25:30;;;;;;;20.50;11.35;;;;;;;8.32;100.00;97032.41;5047106;28;20040;-72
2022/05/21 02:27:56;;;;;;;26.27;10.27;;;;;;;8.27;100.00;97040.28;5046022;28;20447;-73
2022/05/21 02:30:21;;;;;;;19.90;9.77;;;;;;;8.33;100.00;97038.59;5045896;28;20051;-75
2022/05/21 02:32:47;;;;;;;19.02;9.18;;;;;;;8.37;100.00;97037.13;5044823;28;20230;-74
2022/05/21 02:35:14;;;;;;;20.65;9.77;;;;;;;8.39;100.00;97035.06;5035263;28;20045;-72
2022/05/21 02:40:24;;;;;;;16.70;8.00;;;;;;;8.38;100.00;97030.75;5043421;28;20028;-71
2022/05/21 02:42:50;;;;;;;15.90;8.73;;;;;;;8.38;100.00;97023.59;5045217;28;20602;-72
2022/05/21 02:45:20;;;;;;;17.02;8.65;;;;;;;8.34;100.00;97021.56;5046051;28;20043;-74
2022/05/21 02:47:46;;;;;;;13.90;8.05;;;;;;;8.37;100.00;97023.81;5052568;28;20046;-72
2022/05/21 02:50:14;;;;;;;13.75;8.02;;;;;;;8.30;100.00;97023.84;5045286;28;20063;-72
2022/05/21 02:52:40;;;;;;;20.65;7.28;;;;;;;8.29;100.00;97027.53;5044245;28;20329;-74
2022/05/21 02:55:07;;;;;;;16.15;7.72;;;;;;;8.27;100.00;97026.13;5051338;28;20051;-73
2022/05/21 02:57:33;;;;;;;12.52;6.90;;;;;;;8.35;100.00;97026.69;5047271;28;20458;-72
2022/05/21 03:00:01;;;;;;;15.25;6.90;;;;;;;8.29;100.00;97030.22;5047203;28;20036;-73
2022/05/21 03:02:27;;;;;;;12.50;7.72;;;;;;;8.19;100.00;97029.91;5042775;28;20041;-72
2022/05/21 03:04:53;;;;;;;21.05;6.88;;;;;;;8.14;100.00;97031.59;5046423;28;20255;-72
2022/05/21 03:07:19;;;;;;;11.55;6.00;;;;;;;8.08;100.00;97026.09;5045775;28;20060;-75
2022/05/21 03:12:28;;;;;;;10.30;5.78;;;;;;;8.07;100.00;97024.47;5052811;28;20123;-73
2022/05/21 03:14:54;;;;;;;10.85;5.95;;;;;;;8.05;100.00;97023.88;5047090;28;20030;-74
2022/05/21 03:17:19;;;;;;;14.40;6.28;;;;;;;8.06;100.00;97022.81;5045047;28;20043;-72
2022/05/21 03:19:45;;;;;;;11.45;6.50;;;;;;;8.00;100.00;97021.03;5044046;28;20466;-73
2022/05/21 03:22:10;;;;;;;13.50;7.65;;;;;;;7.97;100.00;97024.13;5045344;28;20115;-74
2022/05/21 03:24:36;;;;;;;13.27;7.55;;;;;;;7.91;100.00;97022.34;5045807;28;20033;-74
2022/05/21 03:27:01;;;;;;;11.85;6.75;;;;;;;7.92;100.00;97034.63;5047727;28;20048;-71
2022/05/21 03:29:27;;;;;;;17.38;7.63;;;;;;;7.88;100.00;97029.97;5047872;28;20051;-71
2022/05/21 03:31:52;;;;;;;17.45;7.90;;;;;;;7.96;100.00;97041.16;5044169;28;20124;-72
2022/05/21 03:34:18;;;;;;;14.63;7.68;;;;;;;7.96;100.00;97035.84;5045955;28;20044;-73
2022/05/21 03:36:44;;;;;;;16.33;7.85;;;;;;;7.98;100.00;97032.94;5043660;28;20056;-72
2022/05/21 03:39:11;;;;;;;14.60;8.05;;;;;;;8.01;100.00;97035.97;5047119;28;20482;-74
2022/05/21 03:41:37;;;;;;;14.63;7.95;;;;;;;8.01;100.00;97038.66;5046439;28;20575;-72
2022/05/21 03:44:03;;;;;;;14.93;8.20;;;;;;;8.19;100.00;97047.75;5063331;28;20040;-72
2022/05/21 03:46:29;;;;;;;14.07;8.18;;;;;;;8.37;100.00;97034.47;5049248;28;20059;-73
2022/05/21 03:48:54;;;;;;;16.90;8.70;;;;;;;8.43;100.00;97035.44;5051731;28;20528;-74
2022/05/21 03:51:20;;;;;;;17.58;7.97;;;;;;;8.47;100.00;97048.09;5048347;28;20041;-71
2022/05/21 03:53:46;;;;;;;16.95;8.27;;;;;;;8.61;100.00;97020.25;5049631;28;20745;-73
2022/05/21 03:56:11;;;;;;;15.63;8.60;;;;;;;8.76;100.00;97032.41;5049809;28;20041;-73
2022/05/21 03:58:36;;;;;;;14.23;8.45;;;;;;;8.92;100.00;97026.47;5052095;28;20484;-72
2022/05/21 04:01:02;;;;;;;18.08;8.90;;;;;;;9.00;100.00;97028.84;5046301;28;20465;-75
2022/05/21 04:03:28;;;;;;;16.33;8.35;;;;;;;8.85;100.00;97039.91;5051135;28;20040;-74
2022/05/21 04:05:57;;;;;;;21.70;7.70;;;;;;;8.91;100.00;97039.00;5048211;28;20350;-73
2022/05/21 04:08:24;;;;;;;14.27;7.63;;;;;;;8.94;100.00;97035.88;5048671;28;20588;-71
2022/05/21 04:10:51;;;;;;;16.23;8.05;;;;;;;8.95;100.00;97042.06;5057335;28;20032;-72
2022/05/21 04:13:17;;;;;;;15.20;7.10;;;;;;;9.09;100.00;97040.84;5050667;28;20036;-73
2022/05/21 04:15:43;;;;;;;16.70;7.45;;;;;;;9.06;100.00;97033.28;5051962;28;20033;-72
2022/05/21 04:18:08;;;;;;;13.65;6.18;;;;;;;9.15;100.00;97039.13;5048881;28;20082;-71
2022/05/21 04:20:34;;;;;;;12.05;6.43;;;;;;;9.26;100.00;97040.22;5048283;28;20448;-74
2022/05/21 04:23:00;;;;;;;16.33;6.68;;;;;;;9.27;100.00;97039.19;5049003;28;20041;-71
2022/05/21 04:25:26;;;;;;;15.40;6.25;;;;;;;9.27;100.00;97048.03;5048523;28;20044;-74
2022/05/21 04:27:52;;;;;;;15.25;6.28;;;;;;;9.36;100.00;97037.84;5049327;28;20056;-73
2022/05/21 04:30:22;;;;;;;21.15;6.38;;;;;;;9.44;100.00;97046.34;5050289;28;20045;-72
2022/05/21 04:32:48;;;;;;;15.23;5.03;;;;;;;9.40;100.00;97044.34;5048851;28;20045;-72
2022/05/21 04:35:16;;;;;;;23.17;6.13;;;;;;;9.50;100.00;97036.63;5050366;28;20037;-72
2022/05/21 04:37:43;;;;;;;11.52;6.05;;;;;;;9.46;100.00;97046.13;5048502;28;20032;-71
2022/05/21 04:40:13;;;;;;;12.75;5.72;;;;;;;9.42;100.00;97048.44;5047997;28;20496;-71
2022/05/21 04:42:38;;;;;;;13.73;5.80;;;;;;;9.45;100.00;97042.63;5048510;28;20296;-71
2022/05/21 04:45:05;;;;;;;15.35;6.10;;;;;;;9.19;100.00;97051.00;5050180;28;20120;-72
2022/05/21 04:47:31;;;;;;;12.35;5.70;;;;;;;9.25;100.00;97042.06;5046954;28;20300;-71
2022/05/21 04:49:56;;;;;;;11.07;5.65;;;;;;;9.34;100.00;97050.59;5047012;28;20114;-73
2022/05/21 04:52:22;;;;;;;10.82;5.43;;;;;;;9.25;100.00;97052.75;5046651;28;20539;-71
2022/05/21 04:54:47;;;;;;;13.68;5.95;;;;;;;9.14;100.00;97046.34;5048244;28;20129;-73
2022/05/21 04:57:13;;;;;;;15.68;6.00;;;;;;;9.02;100.00;97048.13;5050182;28;20045;-72
2022/05/21 04:59:38;;;;;;;12.40;4.93;;;;;;;8.99;100.00;97048.56;5050095;28;20043;-74
2022/05/21 05:02:05;;;;;;;14.40;5.40;;;;;;;8.93;100.00;97044.13;5048761;28;20064;-73
2022/05/21 05:04:32;;;;;;;9.07;4.88;;;;;;;8.91;100.00;97051.53;5049292;28;20094;-71
2022/05/21 05:06:57;;;;;;;14.00;5.22;;;;;;;8.88;100.00;97062.69;5048890;28;20048;-73
2022/05/21 05:09:23;;;;;;;8.70;5.03;;;;;;;8.88;100.00;97052.00;5047582;28;20036;-71
2022/05/21 05:11:51;;;;;;;11.30;5.03;;;;;;;8.91;100.00;97056.88;5048633;28;20037;-74
2022/05/21 05:14:20;;;;;;;11.00;4.47;;;;;;;8.96;100.00;97064.22;5048191;28;20037;-71
2022/05/21 05:16:45;;;;;;;14.70;4.45;;;;;;;9.03;100.00;97059.63;5049107;28;20503;-72
2022/05/21 05:19:11;;;;;;;12.32;4.45;;;;;;;9.02;100.00;97053.44;5046605;28;20040;-74
2022/05/21 05:21:36;;;;;;;12.20;4.22;;;;;;;9.11;100.00;97062.81;5047717;28;20599;-71
2022/05/21 05:24:03;;;;;;;10.48;4.30;;;;;;;9.11;100.00;97057.47;5046844;28;20308;-72
2022/05/21 05:26:29;;;;;;;14.70;4.13;;;;;;;9.16;100.00;97054.91;5047797;28;20248;-71
2022/05/21 05:28:54;;;;;;;8.38;4.30;;;;;;;9.12;100.00;97061.78;5048636;28;20044;-74
2022/05/21 05:31:20;;;;;;;12.93;4.00;;;;;;;9.20;100.00;97056.13;5048478;28;20492;-71
2022/05/21 05:33:45;;;;;;;13.40;3.78;;;;;;;9.27;100.00;97061.38;5049801;28;20045;-71
2022/05/21 05:36:11;;;;;;;12.95;3.30;;;;;;;9.28;100.00;97052.31;5045225;28;20036;-74
2022/05/21 05:38:37;;;;;;;13.50;3.70;;;;;;;9.34;100.00;97053.25;5047542;28;20065;-71
2022/05/21 05:41:07;;;;;;;15.05;3.72;;;;;;;9.39;100.00;97059.56;5046622;28;20040;-74
2022/05/21 05:43:33;;;;;;;7.50;3.30;;;;;;;9.72;100.00;97063.63;5048029;28;20041;-73
2022/05/21 05:45:58;;;;;;;12.73;3.33;;;;;;;10.04;100.00;97056.16;5047399;28;20041;-74
2022/05/21 05:48:25;;;;;;;6.43;3.10;;;;;;;10.26;100.00;97053.75;5048070;28;20041;-72
2022/05/21 05:50:50;;;;;;;8.40;2.80;;;;;;;10.25;100.00;97060.97;5048653;28;20546;-71
2022/05/21 05:53:19;;;;;;;11.98;4.00;;;;;;;10.42;100.00;97050.38;5047702;28;20112;-72
2022/05/21 05:55:45;;;;;;;10.95;3.70;;;;;;;10.51;100.00;97057.03;5052710;28;20540;-73
2022/05/21 06:00:54;;;;;;;5.75;2.85;;;;;;;10.83;100.00;97045.94;5038997;28;20057;-71
2022/05/21 06:03:20;;;;;;;9.32;3.45;;;;;;;10.97;100.00;97046.47;5049363;28;20097;-73
2022/05/21 06:05:50;;;;;;;6.95;3.00;;;;;;;11.04;100.00;97049.84;5048554;28;20080;-72
2022/05/21 06:08:15;;;;;;;7.75;2.78;;;;;;;11.18;100.00;97045.03;5045822;28;20052;-73
2022/05/21 06:10:43;;;;;;;12.30;2.53;;;;;;;11.00;100.00;97044.16;5061039;28;20191;-73
2022/05/21 06:13:13;;;;;;;9.00;2.45;;;;;;;11.15;100.00;97046.34;5044983;28;20488;-72
2022/05/21 06:15:38;;;;;;;8.40;2.60;;;;;;;11.22;100.00;97043.53;5046236;28;20079;-74
2022/05/21 06:18:13;;;;;;;7.72;2.60;;;;;;;11.32;100.00;97041.84;5046117;28;20127;-72
2022/05/21 06:20:39;;;;;;;5.40;2.10;;;;;;;11.46;100.00;97034.34;5046426;28;20422;-71
2022/05/21 06:23:05;;;;;;;7.88;2.30;;;;;;;11.27;100.00;97044.41;5052372;28;20040;-72
2022/05/21 06:25:33;;;;;;;13.77;2.55;;;;;;;11.07;100.00;97046.72;5045667;28;20120;-72
2022/05/21 06:28:00;;;;;;;6.95;2.00;;;;;;;11.52;100.00;97043.28;5046388;28;20101;-71
2022/05/21 06:30:27;;;;;;;7.60;2.25;;;;;;;11.36;100.00;97048.38;5045546;28;20523;-71
2022/05/21 06:32:54;;;;;;;8.38;2.17;;;;;;;11.54;100.00;97035.81;5045522;28;20048;-73
2022/05/21 06:35:19;;;;;;;7.78;2.20;;;;;;;11.73;100.00;97034.53;5048551;28;20047;-71
2022/05/21 06:37:46;;;;;;;8.65;2.60;;;;;;;11.79;100.00;97047.00;5044255;28;20040;-72
2022/05/21 06:40:14;;;;;;;10.40;2.40;;;;;;;11.84;100.00;97044.44;5046829;28;20047;-71
2022/05/21 06:42:40;;;;;;;7.15;1.95;;;;;;;11.60;100.00;97062.47;5043531;28;20035;-73
2022/05/21 06:45:07;;;;;;;11.55;2.88;;;;;;;11.64;100.00;97049.41;5042430;28;20036;-71
2022/05/21 06:47:32;;;;;;;6.35;1.83;;;;;;;11.85;100.00;97062.16;5044902;28;20044;-74
2022/05/21 06:49:59;;;;;;;8.07;2.25;;;;;;;11.70;100.00;97053.81;5045405;28;20414;-75
2022/05/21 06:52:25;;;;;;;14.70;2.85;;;;;;;11.70;100.00;97075.25;5045347;28;20549;-73
2022/05/21 06:54:52;;;;;;;10.93;2.17;;;;;;;11.60;100.00;97072.38;5047041;28;20536;-71
2022/05/21 06:57:18;;;;;;;10.48;2.30;;;;;;;11.70;100.00;97067.22;5043545;28;20036;-72
2022/05/21 06:59:44;;;;;;;7.28;2.10;;;;;;;11.86;100.00;97053.03;5046844;28;20039;-72
2022/05/21 07:02:10;;;;;;;9.82;2.38;;;;;;;11.77;100.00;97057.16;5044667;28;20502;-72
2022/05/21 07:07:35;;;;;;;8.88;1.70;;;;;;;12.01;100.00;97062.41;5046621;28;20104;-72
2022/05/21 07:10:07;;;;;;;10.80;2.15;;;;;;;12.15;100.00;97058.34;5047155;28;20632;-72
2022/05/21 07:12:34;;;;;;;7.95;1.63;;;;;;;11.94;100.00;97063.38;5044993;28;20170;-75
2022/05/21 07:15:01;;;;;;;6.68;2.20;;;;;;;11.76;100.00;97068.13;5046027;28;20074;-74
2022/05/21 07:17:26;;;;;;;7.05;2.00;;;;;;;11.54;100.00;97071.47;5045484;28;20063;-74
2022/05/21 07:19:52;;;;;;;10.13;1.98;;;;;;;11.47;100.00;97078.84;5046023;28;20044;-72
2022/05/21 07:22:18;;;;;;;6.88;1.80;;;;;;;11.60;100.00;97080.44;5045648;28;20094;-72
2022/05/21 07:24:43;;;;;;;15.27;2.60;;;;;;;11.66;100.00;97076.75;5047816;28;20100;-75
2022/05/21 07:27:12;;;;;;;7.05;1.48;;;;;;;11.82;100.00;97083.25;5045870;28;20072;-72
2022/05/21 07:29:41;;;;;;;9.88;1.60;;;;;;;11.89;100.00;97090.09;5045816;28;20044;-74
2022/05/21 07:32:16;;;;;;;5.25;1.60;;;;;;;11.98;100.00;97094.03;5048245;28;20418;-74
2022/05/21 07:34:44;;;;;;;12.60;2.03;;;;;;;12.07;100.00;97081.03;5049059;28;20036;-73
2022/05/21 07:37:10;;;;;;;9.63;2.17;;;;;;;12.15;100.00;97077.13;5046944;28;20094;-73
2022/05/21 07:39:35;;;;;;;17.17;2.22;;;;;;;12.43;100.00;97089.66;5045903;28;20151;-75
2022/05/21 07:42:02;;;;;;;5.97;1.35;;;;;;;12.83;100.00;97090.25;5047137;28;20037;-76
2022/05/21 07:44:27;;;;;;;16.75;2.50;;;;;;;12.83;100.00;97076.81;5045651;28;20037;-73
2022/05/21 07:46:53;;;;;;;13.50;1.95;;;;;;;12.42;100.00;97091.53;5046522;28;20549;-74
2022/05/21 07:49:19;;;;;;;9.73;2.85;;;;;;;12.27;100.00;97093.97;5046757;28;20048;-73
2022/05/21 07:51:44;;;;;;;11.35;2.05;;;;;;;12.27;100.00;97092.09;5047135;28;20391;-75
2022/05/21 07:54:10;;;;;;;6.40;1.92;;;;;;;12.33;100.00;97089.50;5045878;28;20512;-73
2022/05/21 07:56:36;;;;;;;8.77;1.25;;;;;;;12.53;100.00;97090.63;5048686;28;20041;-73
2022/05/21 07:59:02;;;;;;;4.60;1.35;;;;;;;12.53;100.00;97090.63;5045420;28;20424;-75
2022/05/21 08:01:28;;;;;;;7.22;1.90;;;;;;;12.43;100.00;97100.38;5044306;28;20076;-72
2022/05/21 08:03:53;;;;;;;8.15;1.88;;;;;;;12.41;100.00;97113.25;5047749;28;20051;-73
2022/05/21 08:06:19;;;;;;;9.43;2.35;;;;;;;12.77;100.00;97099.31;5045484;28;20131;-72
2022/05/21 08:08:45;;;;;;;10.57;2.13;;;;;;;13.03;100.00;97105.84;5046500;28;20374;-74
2022/05/21 08:11:11;;;;;;;8.38;2.42;;;;;;;13.06;100.00;97097.28;5044906;28;20071;-72
2022/05/21 08:13:37;;;;;;;6.38;1.98;;;;;;;13.13;100.00;97097.09;5048379;28;20152;-73
2022/05/21 08:16:03;;;;;;;8.52;1.67;;;;;;;13.34;100.00;97095.53;5046965;28;20403;-75
2022/05/21 08:18:28;;;;;;;10.52;2.30;;;;;;;13.52;100.00;97097.88;5044196;28;20048;-74
2022/05/21 08:20:54;;;;;;;8.43;1.63;;;;;;;13.53;100.00;97090.63;5049045;28;20045;-72
2022/05/21 08:28:49;;;;;;;10.40;1.80;;;;;;;13.85;100.00;97109.53;5046030;28;20047;-73
2022/05/21 08:31:15;;;;;;;8.48;1.92;;;;;;;13.89;100.00;97094.50;5046566;28;20533;-74
2022/05/21 08:33:41;;;;;;;8.32;1.52;;;;;;;13.73;100.00;97087.34;5052342;28;20043;-72
2022/05/21 08:36:06;;;;;;;12.52;2.30;;;;;;;13.75;100.00;97091.41;5050040;28;20032;-73
2022/05/21 08:38:32;;;;;;;7.35;1.60;;;;;;;13.88;100.00;97090.19;5050338;28;20036;-72
2022/05/21 08:41:03;;;;;;;5.25;1.50;;;;;;;14.49;100.00;97096.16;5050991;28;20094;-74
2022/05/21 08:44:06;;;;;;;8.02;1.70;;;;;;;14.84;100.00;97092.88;5049083;28;20036;-75
2022/05/21 08:46:38;;;;;;;10.38;1.92;;;;;;;15.14;100.00;97075.25;5052933;28;20055;-73
2022/05/21 08:49:17;;;;;;;12.75;2.00;;;;;;;14.93;100.00;97079.72;5046737;28;20068;-73
2022/05/21 08:51:47;;;;;;;7.95;1.60;;;;;;;14.90;100.00;97088.34;5051203;28;20079;-73
2022/05/21 08:54:16;;;;;;;10.65;1.80;;;;;;;15.22;100.00;97072.06;5049551;28;20332;-73
2022/05/21 08:56:41;;;;;;;7.35;1.50;;;;;;;15.41;100.00;97072.41;5049507;28;20032;-72
2022/05/21 08:59:08;;;;;;;6.97;1.42;;;;;;;15.30;100.00;97080.47;5046907;28;20037;-73
2022/05/21 09:01:39;;;;;;;9.05;1.40;;;;;;;15.24;100.00;97091.47;5050659;28;20432;-75
2022/05/21 09:04:06;;;;;;;5.70;1.55;;;;;;;15.13;100.00;97096.03;5049947;28;20048;-74
2022/05/21 09:06:50;;;;;;;7.82;1.23;;;;;;;14.87;100.00;97103.16;5049146;28;20505;-75
2022/05/21 09:09:47;;;;;;;4.40;1.30;;;;;;;15.15;100.00;97095.75;5050007;28;20510;-74
2022/05/21 09:12:21;;;;;;;3.85;0.93;;;;;;;15.37;100.00;97087.50;5049046;28;20040;-73
2022/05/21 09:14:54;;;;;;;5.63;1.83;;;;;;;15.21;100.00;97100.91;5050020;28;20399;-74
2022/05/21 09:17:24;;;;;;;3.70;1.67;;;;;;;15.70;100.00;97089.00;5049246;28;20141;-75
2022/05/21 09:19:58;;;;;;;5.38;1.30;;;;;;;15.86;100.00;97085.25;5048370;28;20044;-73
2022/05/21 09:22:25;;;;;;;6.45;1.60;;;;;;;15.95;100.00;97097.13;5048910;28;20033;-75
2022/05/21 09:24:57;;;;;;;6.40;1.60;;;;;;;15.64;100.00;97090.88;5048384;28;20036;-74
2022/05/21 09:27:38;;;;;;;6.35;1.20;;;;;;;15.26;100.00;97095.56;5046763;28;20144;-73
2022/05/21 09:30:22;;;;;;;;;;;;;;;15.21;100.00;97109.00;5048727;28;20300;-73
2022/05/21 09:32:52;;;;;;;7.75;1.42;;;;;;;15.80;100.00;97105.22;5047881;28;20423;-73
2022/05/21 09:35:27;;;;;;;7.95;1.73;;;;;;;16.76;100.00;97103.69;5048494;28;20033;-73
2022/05/21 09:37:53;;;;;;;4.82;1.40;;;;;;;16.46;100.00;97108.00;5050381;28;20241;-74
2022/05/21 09:40:34;;;;;;;6.13;1.60;;;;;;;15.90;100.00;97115.22;5048123;28;20047;-73
2022/05/21 09:46:14;;;;;;;8.00;1.55;;;;;;;15.73;100.00;97126.25;5047557;28;20036;-75
2022/05/21 09:48:40;;;;;;;9.23;1.60;;;;;;;15.80;100.00;97116.03;5046287;28;20531;-74
2022/05/21 09:51:19;;;;;;;7.68;1.35;;;;;;;16.26;100.00;97100.69;5047564;28;20052;-72
2022/05/21 09:53:45;;;;;;;7.80;1.55;;;;;;;16.21;100.00;97105.28;5047631;28;20036;-74
2022/05/21 09:56:24;;;;;;;8.05;1.40;;;;;;;16.10;100.00;97102.56;5046763;28;20047;-73
2022/05/21 09:58:54;;;;;;;9.23;1.45;;;;;;;15.92;100.00;97113.06;5046622;28;20047;-73
2022/05/21 10:01:40;;;;;;;;;;;;;;;16.07;100.00;97115.78;5046375;28;20040;-73
2022/05/21 10:04:19;;;;;;;6.95;1.40;;;;;;;17.05;100.00;97112.03;5045231;28;20361;-72
2022/05/21 10:07:14;;;;;;;9.90;2.47;;;;;;;16.79;100.00;97111.25;5049794;28;20523;-72
2022/05/21 10:12:37;;;;;;;10.07;1.50;;;;;;;16.37;100.00;97107.72;5046892;28;20056;-75
2022/05/21 10:15:08;;;;;;;9.25;1.42;;;;;;;17.20;100.00;97112.00;5045847;28;20037;-74
2022/05/21 10:17:48;;;;;;;5.18;1.40;;;;;;;17.40;100.00;97117.31;5034885;28;20036;-74
2022/05/21 10:20:34;;;;;;;10.68;1.60;;;;;;;16.86;100.00;97109.09;5053999;28;20056;-73
2022/05/21 10:23:10;;;;;;;5.20;1.48;;;;;;;16.92;99.67;97099.88;5037519;28;20094;-73
2022/05/21 10:26:08;;;;;;;7.60;1.30;;;;;;;17.22;94.16;97104.41;5048264;28;20582;-74
2022/05/21 10:28:57;;;;;;;10.38;1.20;;;;;;;18.10;92.40;97104.56;5047245;28;20048;-73
2022/05/21 10:31:36;;;;;;;8.07;1.52;;;;;;;18.89;88.01;97099.06;5047406;28;20048;-73
2022/05/21 10:34:28;;;;;;;8.35;1.40;;;;;;;18.60;89.32;97097.16;5046158;28;20056;-72
2022/05/21 10:37:24;;;;;;;8.00;1.27;;;;;;;18.74;86.15;97091.88;5049870;28;20120;-74
2022/05/21 10:40:35;;;;;;;16.52;1.60;;;;;;;18.79;87.95;97085.63;5027072;28;20049;-75
2022/05/21 10:43:23;;;;;;;7.85;1.55;;;;;;;19.65;86.19;97092.81;5047994;28;20049;-73
2022/05/21 10:46:12;;;;;;;8.82;2.03;;;;;;;19.42;85.97;97077.34;5045362;28;20572;-74
2022/05/21 10:48:44;;;;;;;5.97;1.50;;;;;;;19.40;87.05;97087.69;5044183;28;20043;-73
2022/05/21 10:51:18;;;;;;;11.65;2.03;;;;;;;19.36;83.58;97086.63;5046857;28;20090;-73
2022/05/21 10:53:58;;;;;;;8.38;1.90;;;;;;;19.84;80.66;97086.59;5047200;28;20337;-72
2022/05/21 10:56:43;;;;;;;5.90;1.30;;;;;;;19.30;82.24;97090.50;5048044;28;20044;-73
2022/05/21 10:59:24;;;;;;;2.88;1.20;;;;;;;18.72;86.68;97098.69;5044407;28;20461;-73
2022/05/21 11:02:05;;;;;;;7.57;1.63;;;;;;;18.74;86.49;97102.72;5045455;28;20045;-75
2022/05/21 11:05:02;;;;;;;8.27;1.35;;;;;;;18.55;88.36;97105.31;5046817;28;20041;-73
2022/05/21 11:08:07;;;;;;;4.25;1.50;;;;;;;19.76;76.33;97083.44;5035908;28;20376;-74
2022/05/21 11:10:35;;;;;;;6.78;1.92;;;;;;;20.61;74.59;97095.25;5049347;28;20059;-73
2022/05/21 11:13:17;;;;;;;5.88;1.83;;;;;;;21.42;68.32;97080.19;5050481;28;20431;-74
2022/05/21 11:15:42;;;;;;;6.75;1.50;;;;;;;21.53;68.84;97088.94;5048088;28;20545;-74
2022/05/21 11:18:24;;;;;;;8.02;1.77;;;;;;;23.14;54.17;97081.94;5046119;28;20123;-76
2022/05/21 11:21:02;;;;;;;5.63;1.35;;;;;;;22.94;51.44;97086.00;5047255;28;20539;-74
2022/05/21 11:24:03;;;;;;;6.38;1.80;;;;;;;24.51;44.59;97077.06;5046322;28;20051;-74
2022/05/21 11:26:47;;;;;;;4.68;1.45;;;;;;;22.50;53.19;97078.66;5047469;28;20098;-74
2022/05/21 11:29:24;;;;;;;10.02;1.60;;;;;;;20.24;72.49;97091.47;5047798;28;20040;-74
2022/05/21 11:37:42;;;;;;;5.82;1.73;;;;;;;18.20;89.68;97092.03;5047060;28;20037;-74
2022/05/21 11:40:09;;;;;;;5.32;1.58;;;;;;;18.12;90.80;97095.34;5047090;28;20094;-74
2022/05/21 11:42:36;;;;;;;9.90;2.00;;;;;;;17.92;92.76;97094.41;5047776;28;20033;-77
2022/05/21 11:45:08;;;;;;;6.40;1.75;;;;;;;18.59;88.44;97095.50;5046337;28;20295;-75
2022/05/21 11:47:52;;;;;;;5.90;1.60;;;;;;;18.24;90.47;97103.94;5047463;28;20152;-74
2022/05/21 11:50:30;;;;;;;6.10;1.80;;;;;;;17.96;91.15;97094.63;5045141;28;20547;-75
2022/05/21 11:53:05;;;;;;;5.70;1.75;;;;;;;18.64;89.30;97100.09;5046021;28;20226;-74
2022/05/21 11:55:58;;;;;;;7.70;2.20;;;;;;;21.69;69.02;97089.44;5054854;28;20059;-74
2022/05/21 11:58:52;;;;;;;7.97;1.73;;;;;;;26.02;42.10;97074.75;5044949;28;20127;-72
2022/05/21 12:01:49;;;;;;;7.82;1.80;;;;;;;29.07;35.76;97071.34;5045775;28;20045;-71
2022/05/21 12:04:44;;;;;;;7.10;1.70;;;;;;;30.51;29.87;97062.53;5045382;28;20037;-73
2022/05/21 12:07:43;;;;;;;6.00;1.90;;;;;;;29.22;30.01;97071.72;5048238;28;20041;-74
2022/05/21 12:10:16;;;;;;;4.15;1.58;;;;;;;30.47;29.05;97067.16;5047422;28;20084;-72